Carmean, Kansas
Current Conditions -  °F | °C
As of 5:52 PM on Sunday 23 Nov 2014 (Local Time) from KCNU Reporting Station
Overcast Overcast  
Wind Chill: 39°   Ceiling: 1700
Heat Index: 47°   Visibility: 10mi
Dew Point: 43°   Wind: 21mph
Humidity: 86%   Direction: 340°NNW
Pressure: 29.4"   Gusts: 35mph
Location:  37.9743°N, 95.5572°W
Report Text: KCNU 232352Z AUTO 34018G30KT 10SM OVC017 08/06 A2940 RMK AO2 PK WND 01032/2340 RAB2258E47 SLP954 P0002 60005 T00830061 10156 20083 53028
Loading
Personal Weather Stations






























Interactive Weather Map New forecast layout! Learn more

10-Day Weather Forecast

Advertisements
Track Severe Weather on mobile